Terminal Aerodrome Forecast
Issued by NWS

Home | Current Version | Previous Version | Text Only | Print | Product List | Glossary On
Versions: 1 2 3 4 5 6 7 8 9 10 11 12 13 14 15 16
277
FTAK31 PAJN 201735
TAFAPG
TAF
PAPG 201735Z 2018/2118 VRB02KT 1SM BR OVC003
     FM201900 06005KT P6SM FEW010
     FM210500 00000KT 4SM BR FEW015
      AMD LTD TO CLD VIS AND WIND 2106/2115=

USA.gov is the U.S. government's official web portal to all federal, state and local government web resources and services.